createdAt,value
2022-11-12T00:01:00.500Z,0.00
2022-11-12T00:03:27.919Z,0.15
2022-11-12T00:05:55.269Z,0.05
2022-11-12T00:08:23.009Z,0.00
2022-11-12T00:10:50.551Z,0.52
2022-11-12T00:13:17.949Z,0.55
2022-11-12T00:15:47.008Z,0.32
2022-11-12T00:20:41.855Z,0.75
2022-11-12T00:23:09.213Z,0.22
2022-11-12T00:25:36.672Z,0.47
2022-11-12T00:28:09.134Z,1.15
2022-11-12T00:30:38.389Z,0.00
2022-11-12T00:33:06.142Z,0.13
2022-11-12T00:35:33.898Z,0.90
2022-11-12T00:38:01.380Z,0.17
2022-11-12T00:40:29.116Z,0.38
2022-11-12T00:42:56.637Z,0.00
2022-11-12T00:45:24.254Z,0.10
2022-11-12T00:47:54.934Z,0.00
2022-11-12T00:50:22.301Z,0.40
2022-11-12T00:52:49.605Z,0.00
2022-11-12T00:55:16.961Z,0.00
2022-11-12T00:57:44.274Z,0.00
2022-11-12T01:00:16.789Z,0.00
2022-11-12T01:02:49.426Z,0.00
2022-11-12T01:05:19.548Z,0.32
2022-11-12T01:07:51.667Z,0.00
2022-11-12T01:10:22.130Z,0.20
2022-11-12T01:12:49.527Z,0.10
2022-11-12T01:15:16.898Z,0.00
2022-11-12T01:17:44.432Z,0.05
2022-11-12T01:20:11.939Z,0.00
2022-11-12T01:22:39.228Z,0.00
2022-11-12T01:25:06.815Z,0.13
2022-11-12T01:27:34.637Z,0.32
2022-11-12T01:30:02.039Z,0.10
2022-11-12T01:32:29.602Z,0.00
2022-11-12T01:34:56.997Z,0.05
2022-11-12T01:37:24.306Z,0.20
2022-11-12T01:39:51.728Z,0.10
2022-11-12T01:42:19.148Z,0.38
2022-11-12T01:44:46.820Z,0.00
2022-11-12T01:47:17.204Z,0.00
2022-11-12T01:49:52.367Z,0.55
2022-11-12T01:52:28.298Z,0.00
2022-11-12T01:54:57.755Z,0.00
2022-11-12T01:57:35.213Z,0.17
2022-11-12T02:00:07.289Z,0.10
2022-11-12T02:02:35.626Z,0.00
2022-11-12T02:05:03.816Z,0.00
2022-11-12T02:07:32.837Z,0.00
2022-11-12T02:12:48.811Z,0.00
2022-11-12T02:15:16.198Z,0.00
2022-11-12T02:17:43.575Z,0.00
2022-11-12T02:20:12.005Z,0.00
2022-11-12T02:22:39.344Z,0.13
2022-11-12T02:25:07.283Z,0.00
2022-11-12T02:27:35.101Z,0.00
2022-11-12T02:30:02.386Z,0.10
2022-11-12T02:32:29.788Z,0.45
2022-11-12T02:34:57.062Z,0.00
2022-11-12T02:37:24.456Z,0.10
2022-11-12T02:39:51.855Z,0.00
2022-11-12T02:42:19.180Z,0.03
2022-11-12T02:44:46.623Z,0.00
2022-11-12T02:47:13.964Z,0.00
2022-11-12T02:49:41.356Z,0.10
2022-11-12T02:52:08.728Z,0.00
2022-11-12T02:54:36.059Z,0.00
2022-11-12T02:57:05.430Z,0.15
2022-11-12T02:59:32.717Z,0.17
2022-11-12T03:02:00.071Z,0.00
2022-11-12T03:04:27.517Z,0.30
2022-11-12T03:06:54.923Z,0.10
2022-11-12T03:09:22.500Z,0.00
2022-11-12T03:11:49.897Z,0.00
2022-11-12T03:14:17.220Z,0.00
2022-11-12T03:16:44.639Z,0.00
2022-11-12T03:19:11.993Z,0.00
2022-11-12T03:21:39.433Z,0.00
2022-11-12T03:24:06.852Z,0.32
2022-11-12T03:26:35.922Z,0.00
2022-11-12T03:29:03.675Z,0.40
2022-11-12T03:31:33.646Z,0.00
2022-11-12T03:34:00.971Z,0.00
2022-11-12T03:36:28.428Z,0.00
2022-11-12T03:38:55.778Z,0.00
2022-11-12T03:41:23.245Z,0.10
2022-11-12T03:43:50.550Z,0.00
2022-11-12T03:46:17.888Z,0.45
2022-11-12T03:48:45.182Z,0.00
2022-11-12T03:51:16.482Z,0.25
2022-11-12T03:53:46.000Z,0.47
2022-11-12T03:56:13.380Z,0.00
2022-11-12T03:58:41.221Z,0.10
2022-11-12T04:01:08.623Z,0.00
2022-11-12T04:03:36.044Z,0.00
2022-11-12T04:06:21.921Z,0.00
2022-11-12T04:08:49.322Z,0.00
2022-11-12T04:11:17.351Z,0.03
2022-11-12T04:13:47.713Z,0.10
2022-11-12T04:16:35.278Z,0.15
2022-11-12T04:19:21.997Z,0.00
2022-11-12T04:21:59.219Z,0.00
2022-11-12T04:24:48.900Z,0.00
2022-11-12T04:27:16.242Z,0.00
2022-11-12T04:30:03.031Z,0.08
2022-11-12T04:32:33.402Z,0.10
2022-11-12T04:35:00.987Z,0.00
2022-11-12T04:37:30.190Z,0.28
2022-11-12T04:40:17.563Z,0.20
2022-11-12T04:43:07.366Z,0.65
2022-11-12T04:45:35.108Z,0.00
2022-11-12T04:48:02.618Z,0.00
2022-11-12T04:50:30.000Z,0.00
2022-11-12T04:52:57.274Z,0.00
2022-11-12T04:55:24.543Z,0.00
2022-11-12T04:57:54.855Z,0.70
2022-11-12T05:00:26.623Z,0.43
2022-11-12T05:02:53.941Z,0.00
2022-11-12T05:05:21.372Z,0.00
2022-11-12T05:07:49.936Z,0.00
2022-11-12T05:10:17.504Z,0.60
2022-11-12T05:12:45.331Z,0.20
2022-11-12T05:15:12.993Z,0.05
2022-11-12T05:17:44.147Z,0.10
2022-11-12T05:20:12.135Z,0.00
2022-11-12T05:22:47.809Z,0.00
2022-11-12T05:25:17.991Z,0.00
2022-11-12T05:27:45.341Z,0.03
2022-11-12T05:30:13.005Z,0.00
2022-11-12T05:32:40.360Z,0.20
2022-11-12T05:35:07.965Z,0.00
2022-11-12T05:37:35.438Z,0.00
2022-11-12T05:40:02.732Z,0.00
2022-11-12T05:42:30.276Z,0.17
2022-11-12T05:44:57.695Z,0.00
2022-11-12T05:47:25.034Z,0.10
2022-11-12T05:49:52.395Z,0.00
2022-11-12T05:52:19.738Z,0.05
2022-11-12T05:54:47.073Z,0.47
2022-11-12T05:57:14.423Z,0.10
2022-11-12T05:59:41.785Z,0.10
2022-11-12T06:02:09.199Z,0.00
2022-11-12T06:04:36.637Z,0.00
2022-11-12T06:07:04.347Z,0.10
2022-11-12T06:09:31.824Z,0.00
2022-11-12T06:11:59.193Z,0.15
2022-11-12T06:14:26.503Z,0.13
2022-11-12T06:16:53.847Z,0.30
2022-11-12T06:19:21.158Z,0.03
2022-11-12T06:21:48.451Z,0.75
2022-11-12T06:24:16.201Z,0.00
2022-11-12T06:26:43.545Z,0.03
2022-11-12T06:29:10.867Z,0.00
2022-11-12T06:31:38.188Z,0.20
2022-11-12T06:34:05.985Z,0.00
2022-11-12T06:36:33.542Z,0.10
2022-11-12T06:39:00.872Z,0.10
2022-11-12T06:41:28.250Z,0.00
2022-11-12T06:43:55.631Z,0.25
2022-11-12T06:46:23.096Z,0.00
2022-11-12T06:48:50.458Z,1.02
2022-11-12T06:51:19.459Z,0.10
2022-11-12T06:56:14.322Z,0.30
2022-11-12T06:58:42.047Z,0.68
2022-11-12T07:01:17.720Z,0.00
2022-11-12T07:03:45.596Z,0.20
2022-11-12T07:06:15.438Z,0.25
2022-11-12T07:08:43.143Z,0.30
2022-11-12T07:11:11.095Z,0.77
2022-11-12T07:13:38.518Z,0.88
2022-11-12T07:16:07.174Z,1.05
2022-11-12T07:18:35.420Z,0.45
2022-11-12T07:21:05.221Z,0.45
2022-11-12T07:23:33.320Z,0.32
2022-11-12T07:26:02.059Z,0.60
2022-11-12T07:28:29.787Z,0.10
2022-11-12T07:31:00.360Z,0.35
2022-11-12T07:33:28.327Z,0.22
2022-11-12T07:35:59.432Z,0.00
2022-11-12T07:38:27.555Z,0.08
2022-11-12T07:41:14.424Z,0.00
2022-11-12T07:43:42.383Z,0.10
2022-11-12T07:46:17.677Z,0.00
2022-11-12T07:48:45.194Z,0.63
2022-11-12T07:51:16.955Z,0.00
2022-11-12T07:53:44.911Z,0.00
2022-11-12T07:56:13.164Z,0.73
2022-11-12T07:58:40.528Z,0.35
2022-11-12T08:01:09.172Z,0.00
2022-11-12T08:03:36.751Z,0.00
2022-11-12T08:06:04.857Z,0.08
2022-11-12T08:08:33.274Z,0.30
2022-11-12T08:11:00.858Z,0.20
2022-11-12T08:13:28.165Z,0.00
2022-11-12T08:15:58.090Z,0.38
2022-11-12T08:18:26.206Z,0.08
2022-11-12T08:20:54.146Z,0.20
2022-11-12T08:23:21.411Z,0.22
2022-11-12T08:25:48.836Z,0.10
2022-11-12T08:28:16.131Z,0.08
2022-11-12T08:30:43.452Z,0.00
2022-11-12T08:33:10.738Z,0.10
2022-11-12T08:35:39.573Z,0.20
2022-11-12T08:38:10.971Z,0.00
2022-11-12T08:40:38.285Z,0.08
2022-11-12T08:43:07.019Z,0.52
2022-11-12T08:45:35.103Z,0.10
2022-11-12T08:48:03.522Z,0.10
2022-11-12T08:50:31.148Z,0.10
2022-11-12T08:53:05.821Z,0.20
2022-11-12T08:55:33.670Z,0.28
2022-11-12T08:58:04.214Z,0.17
2022-11-12T09:00:36.006Z,0.22
2022-11-12T09:03:04.692Z,0.10
2022-11-12T09:05:32.380Z,0.20
2022-11-12T09:08:07.712Z,0.10
2022-11-12T09:10:35.432Z,0.40
2022-11-12T09:13:03.018Z,0.00
2022-11-12T09:15:37.559Z,0.10
2022-11-12T09:18:07.033Z,0.13
2022-11-12T09:20:34.327Z,0.10
2022-11-12T09:23:02.834Z,0.10
2022-11-12T09:25:30.611Z,0.15
2022-11-12T09:27:57.938Z,0.15
2022-11-12T09:30:25.250Z,0.00
2022-11-12T09:32:58.132Z,0.10
2022-11-12T09:35:25.518Z,0.20
2022-11-12T09:37:53.203Z,0.10
2022-11-12T09:40:20.703Z,0.10
2022-11-12T09:42:53.532Z,0.30
2022-11-12T09:45:27.648Z,0.10
2022-11-12T09:48:00.686Z,0.10
2022-11-12T09:50:29.566Z,0.25
2022-11-12T09:53:09.575Z,1.27
2022-11-12T09:55:44.248Z,0.15
2022-11-12T09:58:15.089Z,0.00
2022-11-12T10:00:48.288Z,0.20
2022-11-12T10:03:23.635Z,0.10
2022-11-12T10:06:00.744Z,0.00
2022-11-12T10:08:28.290Z,0.22
2022-11-12T10:11:16.192Z,0.10
2022-11-12T10:14:02.367Z,0.50
2022-11-12T10:16:44.649Z,0.00
2022-11-12T10:19:11.998Z,0.40
2022-11-12T10:21:57.342Z,0.22
2022-11-12T10:24:24.874Z,0.00
2022-11-12T10:26:53.132Z,2.42
2022-11-12T10:29:39.332Z,0.32
2022-11-12T10:32:13.675Z,0.10
2022-11-12T10:34:40.977Z,0.10
2022-11-12T10:37:12.479Z,0.63
2022-11-12T10:39:41.319Z,0.30
2022-11-12T10:44:43.635Z,0.40
2022-11-12T10:47:24.630Z,0.30
2022-11-12T10:50:06.497Z,0.00
2022-11-12T10:52:33.862Z,0.13
2022-11-12T10:55:07.672Z,3.58
2022-11-12T10:57:35.039Z,0.17
2022-11-12T11:00:10.443Z,0.00
2022-11-12T11:02:37.778Z,0.22
2022-11-12T11:05:23.641Z,0.13
2022-11-12T11:07:51.153Z,0.70
2022-11-12T11:10:34.584Z,0.47
2022-11-12T11:13:22.880Z,0.20
2022-11-12T11:16:02.392Z,0.40
2022-11-12T11:18:30.740Z,0.20
2022-11-12T11:21:04.587Z,0.30
2022-11-12T11:23:35.159Z,0.73
2022-11-12T11:26:15.845Z,0.20
2022-11-12T11:28:54.812Z,0.20
2022-11-12T11:31:36.690Z,0.40
2022-11-12T11:34:24.280Z,0.28
2022-11-12T11:37:00.509Z,0.28
2022-11-12T11:39:43.100Z,0.57
2022-11-12T11:42:31.265Z,0.65
2022-11-12T11:45:07.763Z,0.20
2022-11-12T11:48:00.010Z,0.20
2022-11-12T11:50:32.801Z,0.70
2022-11-12T11:53:18.837Z,0.60
2022-11-12T11:56:02.499Z,0.25
2022-11-12T11:58:32.610Z,0.63
2022-11-12T12:01:12.599Z,0.57
2022-11-12T12:04:12.874Z,0.88
2022-11-12T12:07:03.345Z,0.60
2022-11-12T12:09:36.777Z,1.00
2022-11-12T12:12:22.705Z,0.30
2022-11-12T12:15:26.762Z,0.35
2022-11-12T12:18:06.452Z,0.20
2022-11-12T12:20:40.946Z,0.30
2022-11-12T12:23:31.327Z,0.82
2022-11-12T12:26:00.450Z,0.40
2022-11-12T12:28:40.936Z,0.80
2022-11-12T12:31:14.977Z,1.10
2022-11-12T12:33:58.777Z,0.93
2022-11-12T12:36:27.840Z,0.73
2022-11-12T12:39:09.153Z,0.40
2022-11-12T12:41:46.827Z,0.60
2022-11-12T12:44:14.177Z,1.08
2022-11-12T12:46:53.257Z,0.77
2022-11-12T12:49:32.152Z,0.40
2022-11-12T12:52:00.125Z,0.68
2022-11-12T12:54:36.459Z,0.27
2022-11-12T12:57:04.494Z,0.30
2022-11-12T12:59:32.489Z,0.83
2022-11-12T13:02:01.722Z,0.73
2022-11-12T13:04:55.226Z,0.88
2022-11-12T13:07:44.265Z,1.52
2022-11-12T13:10:38.955Z,0.60
2022-11-12T13:13:27.681Z,0.43
2022-11-12T13:15:59.843Z,0.30
2022-11-12T13:18:39.676Z,0.40
2022-11-12T13:21:14.629Z,1.70
2022-11-12T13:24:08.107Z,0.28
2022-11-12T13:26:47.921Z,0.55
2022-11-12T13:29:45.016Z,0.80
2022-11-12T13:32:31.063Z,0.45
2022-11-12T13:35:22.873Z,0.80
2022-11-12T13:38:08.351Z,0.22
2022-11-12T13:40:48.818Z,0.52
2022-11-12T13:43:16.109Z,0.63
2022-11-12T13:45:49.729Z,0.35
2022-11-12T13:48:25.832Z,0.28
2022-11-12T13:51:16.758Z,0.60
2022-11-12T13:53:44.260Z,0.38
2022-11-12T13:56:12.574Z,0.20
2022-11-12T13:58:40.049Z,0.50
2022-11-12T14:01:08.485Z,0.43
2022-11-12T14:03:46.456Z,0.38
2022-11-12T14:06:36.134Z,0.30
2022-11-12T14:09:09.598Z,0.20
2022-11-12T14:11:52.198Z,0.95
2022-11-12T14:14:28.707Z,0.63
2022-11-12T14:17:44.671Z,0.52
2022-11-12T14:20:18.878Z,0.90
2022-11-12T14:22:46.591Z,0.73
2022-11-12T14:25:13.952Z,1.20
2022-11-12T14:27:42.392Z,1.08
2022-11-12T14:30:13.096Z,0.98
2022-11-12T14:32:43.410Z,0.57
2022-11-12T14:35:26.391Z,0.32
2022-11-12T14:38:03.397Z,1.50
2022-11-12T14:40:32.116Z,0.77
2022-11-12T14:42:59.687Z,1.20
2022-11-12T14:45:31.207Z,0.95
2022-11-12T14:48:01.724Z,0.70
2022-11-12T14:50:37.603Z,0.75
2022-11-12T14:53:31.504Z,0.50
2022-11-12T14:56:00.734Z,0.77
2022-11-12T14:58:28.612Z,1.48
2022-11-12T15:00:58.306Z,0.80
2022-11-12T15:03:27.229Z,0.80
2022-11-12T15:06:00.651Z,1.08
2022-11-12T15:08:50.737Z,0.55
2022-11-12T15:11:30.936Z,1.00
2022-11-12T15:14:02.031Z,1.92
2022-11-12T15:16:31.041Z,1.67
2022-11-12T15:21:30.176Z,2.13
2022-11-12T15:24:08.671Z,1.88
2022-11-12T15:26:42.380Z,2.55
2022-11-12T15:29:09.820Z,1.55
2022-11-12T15:31:50.926Z,1.52
2022-11-12T15:34:27.820Z,2.80
2022-11-12T15:36:59.853Z,1.15
2022-11-12T15:39:30.483Z,1.52
2022-11-12T15:42:06.875Z,0.88
2022-11-12T15:44:36.794Z,0.65
2022-11-12T15:47:04.730Z,1.08
2022-11-12T15:49:32.194Z,0.73
2022-11-12T15:51:59.521Z,1.55
2022-11-12T15:54:26.804Z,1.33
2022-11-12T15:56:56.381Z,0.50
2022-11-12T15:59:23.817Z,0.90
2022-11-12T16:01:51.129Z,1.25
2022-11-12T16:04:18.601Z,1.48
2022-11-12T16:06:46.049Z,1.35
2022-11-12T16:09:13.429Z,1.00
2022-11-12T16:11:40.857Z,0.65
2022-11-12T16:14:12.796Z,0.90
2022-11-12T16:16:40.181Z,0.90
2022-11-12T16:19:13.113Z,1.30
2022-11-12T16:21:40.618Z,0.90
2022-11-12T16:24:08.175Z,1.35
2022-11-12T16:26:37.228Z,1.00
2022-11-12T16:31:38.694Z,1.20
2022-11-12T16:34:06.023Z,0.77
2022-11-12T16:36:33.381Z,1.08
2022-11-12T16:39:00.805Z,1.23
2022-11-12T16:41:28.098Z,1.67
2022-11-12T16:43:57.740Z,1.25
2022-11-12T16:46:26.802Z,0.45
2022-11-12T16:51:22.085Z,0.85
2022-11-12T16:53:49.965Z,1.95
2022-11-12T16:56:18.892Z,1.05
2022-11-12T16:58:47.454Z,2.75
2022-11-12T17:01:23.573Z,1.23
2022-11-12T17:03:51.446Z,3.78
2022-11-12T17:06:18.968Z,1.63
2022-11-12T17:08:48.384Z,1.85
2022-11-12T17:11:16.209Z,2.50
2022-11-12T17:13:43.923Z,2.78
2022-11-12T17:16:11.805Z,2.47
2022-11-12T17:18:39.557Z,3.08
2022-11-12T17:21:16.690Z,1.48
2022-11-12T17:23:44.526Z,0.80
2022-11-12T17:26:14.826Z,1.27
2022-11-12T17:28:42.258Z,1.13
2022-11-12T17:31:14.418Z,1.30
2022-11-12T17:33:46.442Z,1.42
2022-11-12T17:36:18.751Z,2.35
2022-11-12T17:38:46.534Z,1.00
2022-11-12T17:41:16.679Z,1.15
2022-11-12T17:43:44.899Z,0.75
2022-11-12T17:46:14.946Z,1.65
2022-11-12T17:48:42.580Z,0.85
2022-11-12T17:51:17.973Z,2.10
2022-11-12T17:53:45.554Z,1.92
2022-11-12T17:56:14.678Z,0.98
2022-11-12T17:58:42.365Z,2.25
2022-11-12T18:01:09.820Z,1.40
2022-11-12T18:03:44.048Z,1.67
2022-11-12T18:06:12.821Z,1.10
2022-11-12T18:08:41.772Z,1.80
2022-11-12T18:11:21.613Z,1.20
2022-11-12T18:13:49.455Z,0.88
2022-11-12T18:16:18.480Z,1.60
2022-11-12T18:21:13.889Z,0.80
2022-11-12T18:23:44.825Z,1.55
2022-11-12T18:26:19.529Z,2.15
2022-11-12T18:28:51.643Z,1.17
2022-11-12T18:31:20.371Z,1.20
2022-11-12T18:33:52.677Z,1.38
2022-11-12T18:36:24.772Z,1.55
2022-11-12T18:38:53.265Z,1.10
2022-11-12T18:41:26.422Z,0.95
2022-11-12T18:43:54.734Z,2.25
2022-11-12T18:46:22.572Z,0.87
2022-11-12T18:48:50.741Z,1.38
2022-11-12T18:51:20.657Z,1.13
2022-11-12T18:53:48.593Z,1.15
2022-11-12T18:56:17.990Z,1.13
2022-11-12T18:58:45.641Z,1.48
2022-11-12T19:01:16.328Z,1.58
2022-11-12T19:03:44.699Z,2.17
2022-11-12T19:06:14.899Z,2.08
2022-11-12T19:08:45.380Z,2.05
2022-11-12T19:11:14.426Z,0.70
2022-11-12T19:18:40.500Z,1.30
2022-11-12T19:21:27.233Z,0.60
2022-11-12T19:23:56.247Z,1.13
2022-11-12T19:28:51.344Z,0.77
2022-11-12T19:31:20.514Z,3.10
2022-11-12T19:33:50.665Z,1.25
2022-11-12T19:36:20.880Z,2.60
2022-11-12T19:38:51.249Z,2.38
2022-11-12T19:41:20.135Z,3.03
2022-11-12T19:46:15.441Z,1.92
2022-11-12T19:48:42.877Z,1.25
2022-11-12T19:51:11.474Z,2.00
2022-11-12T19:53:44.788Z,1.58
2022-11-12T19:56:13.732Z,2.65
2022-11-12T19:58:41.812Z,1.83
2022-11-12T20:01:12.712Z,1.57
2022-11-12T20:03:40.549Z,4.75
2022-11-12T20:06:12.580Z,1.88
2022-11-12T20:08:42.607Z,1.60
2022-11-12T20:11:10.581Z,2.15
2022-11-12T20:13:38.166Z,1.92
2022-11-12T20:16:20.766Z,1.45
2022-11-12T20:18:57.507Z,2.35
2022-11-12T20:21:25.698Z,2.10
2022-11-12T20:23:55.102Z,1.05
2022-11-12T20:26:27.444Z,1.40
2022-11-12T20:28:55.252Z,2.40
2022-11-12T20:31:23.109Z,1.90
2022-11-12T20:33:51.605Z,1.48
2022-11-12T20:36:22.860Z,2.13
2022-11-12T20:38:50.648Z,1.77
2022-11-12T20:41:23.603Z,2.30
2022-11-12T20:43:57.848Z,1.73
2022-11-12T20:46:28.648Z,2.08
2022-11-12T20:48:56.211Z,1.23
2022-11-12T20:51:30.904Z,1.00
2022-11-12T20:54:00.237Z,1.85
2022-11-12T20:56:30.033Z,2.60
2022-11-12T20:58:58.119Z,1.85
2022-11-12T21:01:28.907Z,1.80
2022-11-12T21:03:57.625Z,1.77
2022-11-12T21:06:26.423Z,1.27
2022-11-12T21:08:54.176Z,1.70
2022-11-12T21:11:24.899Z,3.42
2022-11-12T21:13:52.710Z,2.33
2022-11-12T21:16:20.420Z,2.28
2022-11-12T21:18:48.257Z,1.75
2022-11-12T21:21:19.716Z,1.50
2022-11-12T21:23:49.376Z,1.67
2022-11-12T21:26:21.507Z,1.27
2022-11-12T21:28:52.534Z,2.30
2022-11-12T21:31:25.993Z,2.20
2022-11-12T21:34:03.338Z,3.50
2022-11-12T21:36:31.916Z,1.27
2022-11-12T21:38:59.502Z,0.82
2022-11-12T21:41:32.158Z,1.67
2022-11-12T21:44:04.919Z,1.33
2022-11-12T21:46:37.624Z,1.75
2022-11-12T21:49:07.489Z,1.92
2022-11-12T21:51:34.847Z,0.75
2022-11-12T21:54:04.205Z,1.50
2022-11-12T21:56:33.557Z,2.95
2022-11-12T21:59:01.638Z,1.80
2022-11-12T22:01:32.687Z,1.40
2022-11-12T22:04:00.184Z,3.08
2022-11-12T22:06:29.242Z,0.60
2022-11-12T22:08:57.685Z,2.13
2022-11-12T22:11:27.925Z,1.63
2022-11-12T22:13:55.412Z,2.67
2022-11-12T22:16:23.888Z,2.85
2022-11-12T22:18:53.235Z,1.20
2022-11-12T22:21:22.096Z,2.33
2022-11-12T22:23:49.625Z,1.27
2022-11-12T22:26:21.343Z,1.92
2022-11-12T22:28:49.154Z,1.70
2022-11-12T22:31:21.100Z,1.23
2022-11-12T22:33:48.712Z,1.50
2022-11-12T22:36:17.498Z,2.45
2022-11-12T22:38:46.381Z,1.85
2022-11-12T22:41:20.860Z,1.85
2022-11-12T22:43:52.176Z,1.48
2022-11-12T22:46:23.874Z,0.82
2022-11-12T22:48:54.095Z,2.33
2022-11-12T22:51:23.384Z,1.08
2022-11-12T22:53:54.651Z,1.60
2022-11-12T22:56:24.513Z,1.10
2022-11-12T22:58:54.890Z,2.45
2022-11-12T23:01:29.938Z,2.13
2022-11-12T23:03:58.607Z,1.70
2022-11-12T23:06:26.549Z,1.17
2022-11-12T23:08:54.487Z,1.85
2022-11-12T23:11:22.272Z,1.05
2022-11-12T23:13:49.712Z,1.05
2022-11-12T23:16:19.132Z,1.85
2022-11-12T23:18:46.774Z,1.15
2022-11-12T23:21:15.731Z,1.77
2022-11-12T23:23:43.340Z,1.73
2022-11-12T23:26:13.646Z,1.77
2022-11-12T23:28:41.311Z,1.30
2022-11-12T23:31:16.064Z,2.33
2022-11-12T23:33:49.048Z,1.45
2022-11-12T23:36:18.758Z,2.90
2022-11-12T23:38:46.249Z,0.90
2022-11-12T23:41:14.576Z,1.35
2022-11-12T23:43:44.260Z,1.45
2022-11-12T23:46:11.951Z,1.35
2022-11-12T23:48:39.406Z,1.58
2022-11-12T23:51:08.477Z,1.23
2022-11-12T23:56:11.735Z,1.50
2022-11-12T23:58:40.821Z,1.83
